Time;durP1;ratioP1;P1;durP2;ratioP2;P2;SDS_P1;SDS_P2;PMS_P1;PMS_P2;Temp;Humidity;BMP_temperature;BMP_pressure;BME280_temperature;BME280_humidity;BME280_pressure;Samples;Min_cycle;Max_cycle;Signal;HPM_P1;HPM_P2
2023/02/02 00:00:12;;;;;;;5.67;2.80;;;4.40;99.90;;;;;;5094897;28;20692;-53
2023/02/02 00:02:38;;;;;;;9.10;2.60;;;6.10;99.90;;;;;;5104444;28;20200;-54
2023/02/02 00:05:04;;;;;;;6.60;2.90;;;;;;;;;;5112773;28;20204;-58
2023/02/02 00:07:29;;;;;;;6.17;2.47;;;4.60;99.90;;;;;;5113288;28;20207;-53
2023/02/02 00:09:55;;;;;;;5.73;2.63;;;4.20;99.90;;;;;;5094840;28;20650;-52
2023/02/02 00:12:20;;;;;;;5.77;2.90;;;4.70;99.90;;;;;;5092801;28;20197;-54
2023/02/02 00:14:46;;;;;;;6.47;2.60;;;;;;;;;;5092363;28;20570;-60
2023/02/02 00:17:12;;;;;;;8.47;2.80;;;4.90;99.90;;;;;;5091549;28;20177;-53
2023/02/02 00:21:01;;;;;;;6.47;2.73;;;4.30;99.90;;;;;;5068258;28;20964;-57
2023/02/02 00:23:26;;;;;;;5.60;3.10;;;4.30;99.90;;;;;;5068096;28;20233;-53
2023/02/02 00:25:52;;;;;;;7.03;2.70;;;4.50;99.90;;;;;;5068064;28;20220;-54
2023/02/02 00:28:17;;;;;;;7.80;3.47;;;4.70;99.90;;;;;;5067533;28;20179;-56
2023/02/02 00:30:44;;;;;;;6.70;2.77;;;4.50;99.90;;;;;;5068228;28;20200;-55
2023/02/02 00:33:09;;;;;;;7.80;3.00;;;4.60;99.90;;;;;;5067846;28;20213;-57
2023/02/02 00:35:57;;;;;;;8.17;2.90;;;4.80;99.90;;;;;;5068416;28;20599;-55
2023/02/02 00:38:23;;;;;;;5.50;2.60;;;4.90;99.90;;;;;;5068196;28;20186;-59
2023/02/02 00:40:49;;;;;;;6.80;3.13;;;4.90;99.90;;;;;;5068487;28;20194;-53
2023/02/02 00:43:14;;;;;;;5.63;2.67;;;4.90;99.90;;;;;;5068008;28;20540;-57
2023/02/02 00:45:40;;;;;;;6.50;2.50;;;4.70;99.90;;;;;;5068297;28;20222;-54
2023/02/02 00:48:06;;;;;;;6.97;2.67;;;4.80;99.90;;;;;;5068098;28;20171;-56
2023/02/02 00:53:04;;;;;;;4.70;2.43;;;4.70;99.90;;;;;;5062987;28;20218;-52
2023/02/02 00:55:29;;;;;;;6.47;2.70;;;4.70;99.90;;;;;;5064876;28;20207;-50
2023/02/02 00:57:55;;;;;;;7.37;3.20;;;4.70;99.90;;;;;;5059461;28;20167;-56
2023/02/02 01:00:23;;;;;;;5.43;2.47;;;4.80;99.90;;;;;;5065977;28;20194;-53
2023/02/02 01:02:50;;;;;;;6.37;3.00;;;4.80;99.90;;;;;;5059331;28;20222;-56
2023/02/02 01:05:16;;;;;;;3.57;2.43;;;5.00;99.90;;;;;;5067434;28;20167;-55
2023/02/02 01:07:43;;;;;;;6.20;2.47;;;4.80;99.90;;;;;;5067850;28;20584;-54
2023/02/02 01:10:13;;;;;;;5.97;2.80;;;5.10;99.90;;;;;;5067090;28;20181;-56
2023/02/02 01:12:39;;;;;;;4.27;2.37;;;4.90;99.90;;;;;;5067797;28;20182;-53
2023/02/02 01:15:05;;;;;;;6.50;3.07;;;4.90;99.90;;;;;;5067365;28;20264;-53
2023/02/02 01:17:31;;;;;;;6.33;2.60;;;4.90;99.90;;;;;;5067535;28;20198;-53
2023/02/02 01:19:57;;;;;;;5.17;2.43;;;4.90;99.90;;;;;;5067515;28;20261;-54
2023/02/02 01:22:23;;;;;;;4.50;2.43;;;4.90;99.90;;;;;;5067396;28;20278;-56
2023/02/02 01:24:48;;;;;;;6.27;2.30;;;5.00;99.90;;;;;;5067297;28;20178;-51
2023/02/02 01:27:14;;;;;;;4.70;2.50;;;5.00;99.90;;;;;;5066896;28;20175;-54
2023/02/02 01:29:39;;;;;;;4.03;2.50;;;5.00;99.90;;;;;;5051854;28;20182;-56
2023/02/02 01:32:05;;;;;;;5.43;2.53;;;5.00;99.90;;;;;;5046926;28;20195;-56
2023/02/02 01:34:30;;;;;;;5.23;3.30;;;5.00;99.90;;;;;;5047306;28;20837;-53
2023/02/02 01:36:56;;;;;;;4.97;2.70;;;4.90;99.90;;;;;;5047075;28;20171;-54
2023/02/02 01:39:22;;;;;;;5.80;2.70;;;4.90;99.90;;;;;;5046177;28;20164;-55
2023/02/02 01:41:47;;;;;;;3.63;2.57;;;4.90;99.90;;;;;;5046970;28;20187;-54
2023/02/02 01:44:50;;;;;;;4.50;2.67;;;5.00;99.90;;;;;;5047129;28;20289;-54
2023/02/02 01:47:18;;;;;;;3.93;2.33;;;5.20;99.90;;;;;;5033771;28;20210;-53
2023/02/02 01:49:44;;;;;;;3.77;2.00;;;5.30;99.90;;;;;;5033940;28;20180;-54
2023/02/02 01:52:12;;;;;;;2.57;1.50;;;5.50;99.90;;;;;;5033399;28;20249;-54
2023/02/02 01:54:42;;;;;;;3.00;1.20;;;5.40;99.90;;;;;;5032179;28;20665;-54
2023/02/02 01:57:34;;;;;;;1.43;1.00;;;5.10;99.90;;;;;;5033807;28;20226;-53
2023/02/02 02:00:03;;;;;;;0.80;0.80;;;4.60;99.90;;;;;;5041429;28;20178;-54
2023/02/02 02:02:31;;;;;;;0.67;0.60;;;4.50;99.90;;;;;;5045907;28;20725;-57
2023/02/02 02:05:00;;;;;;;0.83;0.70;;;4.50;99.90;;;;;;5049852;28;20183;-54
2023/02/02 02:07:26;;;;;;;0.80;0.80;;;0.80;99.90;;;;;;5051925;28;20171;-56
2023/02/02 02:09:51;;;;;;;1.27;0.83;;;1.10;99.90;;;;;;5052240;28;20687;-53
2023/02/02 02:12:17;;;;;;;0.70;0.70;;;4.70;99.90;;;;;;5053207;28;20617;-54
2023/02/02 02:18:03;;;;;;;0.50;0.50;;;5.00;99.90;;;;;;5053302;28;20551;-53
2023/02/02 02:27:16;;;;;;;0.60;0.60;;;4.40;99.90;;;;;;5053273;28;20174;-52
2023/02/02 02:30:29;;;;;;;0.40;0.40;;;4.50;99.90;;;;;;5053606;28;20209;-53
2023/02/02 02:33:10;;;;;;;0.50;0.50;;;4.40;99.90;;;;;;4991509;28;20204;-53
2023/02/02 02:35:54;;;;;;;0.50;0.50;;;4.20;99.90;;;;;;4992041;28;20208;-52
2023/02/02 02:38:41;;;;;;;0.33;0.33;;;4.10;99.90;;;;;;4991206;28;20181;-54
2023/02/02 02:41:30;;;;;;;0.50;0.50;;;3.90;99.90;;;;;;4991911;28;20204;-52
2023/02/02 02:44:00;;;;;;;0.50;0.50;;;3.80;99.90;;;;;;4991111;28;20185;-56
2023/02/02 02:46:26;;;;;;;0.40;0.40;;;3.90;99.90;;;;;;4991582;28;20178;-55
2023/02/02 02:48:52;;;;;;;0.50;0.50;;;3.90;99.90;;;;;;4991284;28;20212;-56
2023/02/02 02:51:39;;;;;;;0.50;0.50;;;3.60;99.90;;;;;;4991571;28;20221;-53
2023/02/02 02:54:05;;;;;;;0.40;0.40;;;3.30;99.90;;;;;;4991037;28;20196;-54
2023/02/02 02:56:40;;;;;;;0.50;0.50;;;3.70;99.90;;;;;;4991231;28;20189;-55
2023/02/02 02:59:15;;;;;;;0.40;0.40;;;3.80;99.90;;;;;;4990182;28;20184;-56
2023/02/02 03:01:56;;;;;;;0.50;0.50;;;3.80;99.90;;;;;;4991589;28;20189;-55
2023/02/02 03:04:44;;;;;;;0.40;0.40;;;3.70;99.90;;;;;;4991334;28;20185;-55
2023/02/02 03:07:20;;;;;;;0.60;0.60;;;4.00;99.90;;;;;;4991405;28;20181;-56
2023/02/02 03:09:47;;;;;;;0.60;0.60;;;3.50;99.90;;;;;;5022931;28;20682;-54
2023/02/02 03:12:15;;;;;;;0.40;0.40;;;3.50;99.90;;;;;;5032935;28;20195;-56
2023/02/02 03:14:41;;;;;;;0.50;0.50;;;3.70;99.90;;;;;;5032684;28;20278;-55
2023/02/02 03:17:07;;;;;;;0.47;0.47;;;3.40;99.90;;;;;;5032427;28;20164;-56
2023/02/02 03:19:32;;;;;;;0.50;0.50;;;3.50;99.90;;;;;;5032845;28;20164;-54
2023/02/02 03:21:58;;;;;;;0.50;0.50;;;3.30;99.90;;;;;;5032308;28;20267;-52
2023/02/02 03:24:24;;;;;;;0.40;0.40;;;3.80;99.90;;;;;;5032370;28;20267;-51
2023/02/02 03:26:50;;;;;;;0.50;0.50;;;3.80;99.90;;;;;;5032017;28;20254;-56
2023/02/02 03:29:16;;;;;;;0.40;0.40;;;3.40;99.90;;;;;;5031513;28;20187;-54
2023/02/02 03:31:42;;;;;;;0.50;0.50;;;3.20;99.90;;;;;;5032215;28;20238;-52
2023/02/02 03:34:07;;;;;;;0.40;0.40;;;3.30;99.90;;;;;;5032579;28;20223;-54
2023/02/02 03:36:33;;;;;;;0.40;0.40;;;3.40;99.90;;;;;;5032245;28;20714;-56
2023/02/02 03:38:58;;;;;;;0.50;0.50;;;3.00;99.90;;;;;;5032291;28;20591;-52
2023/02/02 03:41:24;;;;;;;0.50;0.50;;;3.20;99.90;;;;;;5032183;28;20238;-53
2023/02/02 03:43:50;;;;;;;0.50;0.50;;;3.10;99.90;;;;;;5031966;28;20187;-56
2023/02/02 03:46:15;;;;;;;0.53;0.53;;;3.10;99.90;;;;;;5032234;28;20183;-54
2023/02/02 03:48:41;;;;;;;0.50;0.50;;;3.10;99.90;;;;;;5032177;28;20179;-54
2023/02/02 03:51:12;;;;;;;0.67;0.67;;;3.10;99.90;;;;;;5032176;28;20199;-56
2023/02/02 03:53:39;;;;;;;0.50;0.50;;;3.20;99.90;;;;;;5031822;28;20182;-53
2023/02/02 03:56:05;;;;;;;0.50;0.50;;;3.20;99.90;;;;;;5032064;28;20183;-55
2023/02/02 03:58:30;;;;;;;0.50;0.50;;;3.30;99.90;;;;;;5031726;28;20541;-58
2023/02/02 04:01:09;;;;;;;1.30;0.60;;;3.40;99.90;;;;;;5031696;28;20192;-54
2023/02/02 04:03:34;;;;;;;0.50;0.50;;;3.50;99.90;;;;;;5032067;28;20599;-51
2023/02/02 04:06:00;;;;;;;0.60;0.60;;;3.60;99.90;;;;;;5031670;28;20262;-56
2023/02/02 04:08:25;;;;;;;0.60;0.60;;;3.60;99.90;;;;;;5031313;28;20179;-58
2023/02/02 04:10:51;;;;;;;2.00;0.80;;;3.50;99.90;;;;;;5031653;28;20359;-53
2023/02/02 04:13:16;;;;;;;1.70;0.80;;;3.30;99.90;;;;;;5031825;28;20179;-55
2023/02/02 04:15:42;;;;;;;0.40;0.40;;;3.10;99.90;;;;;;5031581;28;20629;-56
2023/02/02 04:18:07;;;;;;;0.60;0.60;;;2.90;99.90;;;;;;5031864;28;20672;-56
2023/02/02 04:20:33;;;;;;;0.50;0.50;;;2.80;99.90;;;;;;5031443;28;20168;-53
2023/02/02 04:22:59;;;;;;;0.50;0.50;;;2.80;99.90;;;;;;5031726;28;20206;-54
2023/02/02 04:25:24;;;;;;;0.50;0.50;;;2.80;99.90;;;;;;5030734;28;20514;-55
2023/02/02 04:27:50;;;;;;;0.60;0.60;;;2.70;99.90;;;;;;5031542;28;20199;-54
2023/02/02 04:30:16;;;;;;;0.50;0.50;;;2.70;99.90;;;;;;5031720;28;20182;-58
2023/02/02 04:32:41;;;;;;;0.50;0.50;;;2.70;99.90;;;;;;5031454;28;20277;-52
2023/02/02 04:35:07;;;;;;;0.40;0.40;;;2.70;99.90;;;;;;5031446;28;20603;-54
2023/02/02 04:37:33;;;;;;;0.50;0.50;;;2.60;99.90;;;;;;5031539;28;20167;-52
2023/02/02 04:39:58;;;;;;;0.73;0.70;;;2.60;99.90;;;;;;5031305;28;20190;-54
2023/02/02 04:42:24;;;;;;;0.57;0.57;;;2.70;99.90;;;;;;5031406;28;20192;-52
2023/02/02 04:44:49;;;;;;;12.17;1.00;;;2.80;99.90;;;;;;5031656;28;20182;-56
2023/02/02 04:47:15;;;;;;;0.60;0.60;;;2.80;99.90;;;;;;5031697;28;20233;-56
2023/02/02 04:49:40;;;;;;;11.33;1.00;;;2.90;99.90;;;;;;5031482;28;20203;-51
2023/02/02 04:52:06;;;;;;;0.60;0.60;;;2.80;99.90;;;;;;5031247;28;20211;-56
2023/02/02 04:54:32;;;;;;;0.60;0.60;;;2.90;99.90;;;;;;5030313;28;20322;-54
2023/02/02 04:56:58;;;;;;;0.60;0.60;;;2.80;99.90;;;;;;5031059;28;20220;-52
2023/02/02 04:59:23;;;;;;;0.50;0.50;;;2.80;99.90;;;;;;5031029;28;20671;-55
2023/02/02 05:01:49;;;;;;;0.50;0.50;;;2.70;99.90;;;;;;5031021;28;20702;-56
2023/02/02 05:04:15;;;;;;;0.60;0.60;;;2.60;99.90;;;;;;5031071;28;20168;-56
2023/02/02 05:06:40;;;;;;;0.60;0.60;;;2.60;99.90;;;;;;5031223;28;20270;-52
2023/02/02 05:09:06;;;;;;;0.50;0.50;;;2.60;99.90;;;;;;5030972;28;20172;-54
2023/02/02 05:11:32;;;;;;;0.50;0.50;;;2.50;99.90;;;;;;5031131;28;20188;-54
2023/02/02 05:13:57;;;;;;;0.50;0.50;;;2.30;99.90;;;;;;5031248;28;20182;-52
2023/02/02 05:16:23;;;;;;;1.83;0.70;;;2.30;99.90;;;;;;5030629;28;20191;-56
2023/02/02 05:18:54;;;;;;;0.50;0.50;;;2.20;99.90;;;;;;5031069;28;20302;-52
2023/02/02 05:21:21;;;;;;;0.60;0.60;;;2.10;99.90;;;;;;5032285;28;20196;-51
2023/02/02 05:23:46;;;;;;;0.50;0.50;;;2.20;99.90;;;;;;5034549;28;20414;-56
2023/02/02 05:26:25;;;;;;;0.50;0.50;;;2.20;99.90;;;;;;5053892;28;20175;-53
2023/02/02 05:28:51;;;;;;;0.60;0.60;;;2.30;99.90;;;;;;5037692;28;20546;-54
2023/02/02 05:31:18;;;;;;;0.60;0.60;;;2.30;99.90;;;;;;5034644;28;20722;-52
2023/02/02 05:33:44;;;;;;;0.67;0.67;;;2.20;99.90;;;;;;5039986;28;20170;-53
2023/02/02 05:36:10;;;;;;;0.60;0.60;;;2.10;99.90;;;;;;5053533;28;20266;-54
2023/02/02 05:38:35;;;;;;;0.70;0.70;;;2.00;99.90;;;;;;5053352;28;20175;-56
2023/02/02 05:41:01;;;;;;;0.80;0.80;;;2.00;99.90;;;;;;5054457;28;20719;-57
2023/02/02 05:43:29;;;;;;;0.83;0.83;;;2.00;99.90;;;;;;5054153;28;20179;-56
2023/02/02 05:45:55;;;;;;;0.90;0.90;;;2.00;99.90;;;;;;5054530;28;20224;-53
2023/02/02 05:48:20;;;;;;;0.83;0.83;;;2.00;99.90;;;;;;5054251;28;20213;-57
2023/02/02 05:51:01;;;;;;;0.93;0.93;;;2.10;99.90;;;;;;5054296;28;20175;-59
2023/02/02 05:53:29;;;;;;;1.00;0.83;;;2.20;99.90;;;;;;5053994;28;20183;-56
2023/02/02 05:55:54;;;;;;;0.90;0.90;;;2.20;99.90;;;;;;5053471;28;20629;-58
2023/02/02 05:58:20;;;;;;;0.90;0.90;;;2.20;99.90;;;;;;5054261;28;20258;-57
2023/02/02 06:00:45;;;;;;;1.03;0.80;;;2.20;99.90;;;;;;5054145;28;20640;-55
2023/02/02 06:03:11;;;;;;;0.90;0.87;;;2.20;99.90;;;;;;5054046;28;20189;-55
2023/02/02 06:05:37;;;;;;;0.80;0.80;;;2.30;99.90;;;;;;5053958;28;20601;-56
2023/02/02 06:08:03;;;;;;;0.87;0.87;;;2.30;99.90;;;;;;5054024;28;20174;-58
2023/02/02 06:10:30;;;;;;;0.70;0.70;;;2.30;99.90;;;;;;5053810;28;20179;-53
2023/02/02 06:12:56;;;;;;;0.60;0.60;;;2.30;99.90;;;;;;5054063;28;20178;-58
2023/02/02 06:15:22;;;;;;;0.60;0.60;;;2.30;99.90;;;;;;5053536;28;20254;-54
2023/02/02 06:17:47;;;;;;;0.50;0.50;;;2.40;99.90;;;;;;5053924;28;20179;-56
2023/02/02 06:20:13;;;;;;;0.53;0.53;;;2.40;99.90;;;;;;5047593;28;20200;-56
2023/02/02 06:22:39;;;;;;;0.70;0.70;;;2.30;99.90;;;;;;5052910;28;20265;-56
2023/02/02 06:25:06;;;;;;;0.70;0.70;;;2.30;99.90;;;;;;5050180;28;20221;-58
2023/02/02 06:27:32;;;;;;;0.70;0.70;;;2.30;99.90;;;;;;5046582;28;20171;-57
2023/02/02 06:29:57;;;;;;;0.60;0.60;;;2.30;99.90;;;;;;5051009;28;20728;-56
2023/02/02 06:32:23;;;;;;;0.90;0.90;;;2.30;99.90;;;;;;5052762;28;20602;-56
2023/02/02 06:34:49;;;;;;;0.70;0.70;;;2.30;99.90;;;;;;5053621;28;20210;-57
2023/02/02 06:37:15;;;;;;;0.93;0.80;;;2.40;99.90;;;;;;5053306;28;20254;-57
2023/02/02 06:39:40;;;;;;;0.93;0.93;;;2.40;99.90;;;;;;5050688;28;20179;-53
2023/02/02 06:42:06;;;;;;;1.20;1.10;;;2.40;99.90;;;;;;5051819;28;20203;-56
2023/02/02 06:44:32;;;;;;;1.00;1.00;;;2.40;99.90;;;;;;5052519;28;20592;-58
2023/02/02 06:46:57;;;;;;;0.80;0.80;;;2.40;99.90;;;;;;5053027;28;20547;-56
2023/02/02 06:49:23;;;;;;;1.13;1.03;;;2.50;99.90;;;;;;5045558;28;20225;-52
2023/02/02 06:51:48;;;;;;;1.20;1.20;;;2.50;99.90;;;;;;5051369;28;20248;-52
2023/02/02 06:54:14;;;;;;;1.07;1.07;;;2.40;99.90;;;;;;5043971;28;20222;-55
2023/02/02 06:56:39;;;;;;;1.23;1.13;;;2.40;99.90;;;;;;5088896;22;20231;-57
2023/02/02 06:59:05;;;;;;;1.10;1.10;;;2.50;99.90;;;;;;5051292;28;20183;-57
2023/02/02 07:01:31;;;;;;;1.10;1.10;;;2.60;99.90;;;;;;5050089;28;20175;-56
2023/02/02 07:03:57;;;;;;;0.90;0.90;;;2.60;99.90;;;;;;5051369;28;20210;-56
2023/02/02 07:06:26;;;;;;;1.10;1.10;;;2.50;99.90;;;;;;5026098;28;20214;-57
2023/02/02 07:08:53;;;;;;;1.10;1.10;;;2.60;99.90;;;;;;5030658;28;20176;-58
2023/02/02 07:11:18;;;;;;;1.50;1.40;;;2.50;99.90;;;;;;5032561;28;20168;-56
2023/02/02 07:13:46;;;;;;;1.00;1.00;;;2.50;99.90;;;;;;5023753;28;20307;-55
2023/02/02 07:16:12;;;;;;;1.00;1.00;;;2.50;99.90;;;;;;5026854;28;20188;-59
2023/02/02 07:18:38;;;;;;;3.33;1.13;;;2.40;99.90;;;;;;5032153;28;20175;-54
2023/02/02 07:21:05;;;;;;;1.27;1.27;;;2.40;99.90;;;;;;5032886;28;20201;-59
2023/02/02 07:23:32;;;;;;;1.30;1.20;;;2.40;99.90;;;;;;5021382;28;20782;-57
2023/02/02 07:26:02;;;;;;;1.73;1.63;;;2.50;99.90;;;;;;5023726;28;20207;-59
2023/02/02 07:28:28;;;;;;;1.10;1.10;;;2.50;99.90;;;;;;5027367;28;20699;-58
2023/02/02 07:30:53;;;;;;;1.87;1.50;;;2.60;99.90;;;;;;5026907;28;20176;-59
2023/02/02 07:33:19;;;;;;;3.53;1.83;;;2.60;99.90;;;;;;5028535;28;20241;-52
2023/02/02 07:35:44;;;;;;;1.37;1.33;;;2.60;99.90;;;;;;5027445;28;20251;-56
2023/02/02 07:38:10;;;;;;;1.70;1.60;;;2.50;99.90;;;;;;5019544;28;20711;-58
2023/02/02 07:40:35;;;;;;;1.30;1.30;;;2.50;99.90;;;;;;5031639;28;20250;-52
2023/02/02 07:43:01;;;;;;;2.67;1.40;;;2.50;99.90;;;;;;5026336;28;20207;-54
2023/02/02 07:45:27;;;;;;;1.60;1.50;;;2.50;99.90;;;;;;5020626;28;20191;-54
2023/02/02 07:47:59;;;;;;;1.13;1.13;;;2.50;99.90;;;;;;5029733;28;20196;-55
2023/02/02 07:50:26;;;;;;;1.50;1.40;;;2.40;99.90;;;;;;5029050;28;20263;-57
2023/02/02 07:52:55;;;;;;;1.67;1.57;;;2.40;99.90;;;;;;5023507;28;20207;-55
2023/02/02 07:55:22;;;;;;;2.83;1.67;;;2.40;99.90;;;;;;5022080;28;20645;-58
2023/02/02 07:57:51;;;;;;;1.73;1.63;;;2.50;99.90;;;;;;5030064;28;20207;-56
2023/02/02 08:00:17;;;;;;;2.80;2.60;;;2.40;99.90;;;;;;5019346;28;20196;-56
2023/02/02 08:02:42;;;;;;;2.33;2.20;;;2.30;99.90;;;;;;5028947;28;20206;-56
2023/02/02 08:05:08;;;;;;;1.60;1.50;;;2.40;99.90;;;;;;5013810;28;20199;-55
2023/02/02 08:07:34;;;;;;;1.17;1.13;;;2.50;99.90;;;;;;5021460;28;20206;-56
2023/02/02 08:10:00;;;;;;;3.13;1.40;;;2.50;99.90;;;;;;5026023;28;20661;-57
2023/02/02 08:12:25;;;;;;;9.90;2.33;;;2.30;99.90;;;;;;5025957;28;20175;-56
2023/02/02 08:14:51;;;;;;;1.40;1.30;;;2.30;99.90;;;;;;5031596;28;20712;-58
2023/02/02 08:17:17;;;;;;;2.33;1.40;;;2.30;99.90;;;;;;5031104;28;20194;-56
2023/02/02 08:19:43;;;;;;;0.97;0.97;;;2.30;99.90;;;;;;5031495;28;20171;-55
2023/02/02 08:22:08;;;;;;;2.97;1.53;;;2.30;99.90;;;;;;5031184;28;20183;-55
2023/02/02 08:24:39;;;;;;;1.77;1.30;;;2.30;99.90;;;;;;5030865;28;20601;-57
2023/02/02 08:27:06;;;;;;;1.73;1.17;;;2.20;99.90;;;;;;5030566;28;20275;-55
2023/02/02 08:29:31;;;;;;;1.00;1.00;;;2.30;99.90;;;;;;5031716;28;20176;-54
2023/02/02 08:31:57;;;;;;;1.10;1.10;;;2.30;99.90;;;;;;5029207;28;20192;-58
2023/02/02 08:34:23;;;;;;;25.37;3.33;;;2.40;99.90;;;;;;5016892;28;20208;-53
2023/02/02 08:36:48;;;;;;;2.73;1.10;;;2.50;99.90;;;;;;5011290;28;20222;-57
2023/02/02 08:39:14;;;;;;;5.43;1.20;;;2.40;99.90;;;;;;5013959;28;20545;-53
2023/02/02 08:41:39;;;;;;;1.40;1.30;;;2.30;99.90;;;;;;5016807;28;20192;-58
2023/02/02 08:44:10;;;;;;;5.67;1.30;;;2.30;99.90;;;;;;5028443;28;20253;-58
2023/02/02 08:46:36;;;;;;;3.20;1.40;;;2.30;99.90;;;;;;5031256;28;20283;-54
2023/02/02 08:49:01;;;;;;;1.10;1.10;;;2.20;99.90;;;;;;5029489;28;20642;-58
2023/02/02 08:51:27;;;;;;;1.03;1.03;;;2.20;99.90;;;;;;5031284;28;20545;-56
2023/02/02 08:53:53;;;;;;;1.10;1.10;;;2.20;99.90;;;;;;5030841;28;20175;-57
2023/02/02 08:56:21;;;;;;;1.03;1.03;;;2.30;99.90;;;;;;5031615;28;20207;-56
2023/02/02 08:58:49;;;;;;;1.00;1.00;;;2.50;99.90;;;;;;5031050;28;20187;-55
2023/02/02 09:01:17;;;;;;;0.97;0.80;;;2.50;99.90;;;;;;5024397;28;20176;-51
2023/02/02 09:03:44;;;;;;;0.90;0.90;;;2.40;99.90;;;;;;5019234;28;20267;-48
2023/02/02 09:06:15;;;;;;;1.00;1.00;;;2.30;99.90;;;;;;5015094;28;20211;-50
2023/02/02 09:08:41;;;;;;;1.20;1.13;;;2.30;99.90;;;;;;5014356;28;20660;-53
2023/02/02 09:11:09;;;;;;;0.80;0.80;;;2.30;99.90;;;;;;5015430;28;20192;-48
2023/02/02 09:13:36;;;;;;;0.90;0.90;;;2.20;99.90;;;;;;5015265;28;20176;-51
2023/02/02 09:16:04;;;;;;;0.90;0.90;;;2.20;99.90;;;;;;5015597;28;20212;-52
2023/02/02 09:18:30;;;;;;;1.03;1.00;;;2.20;99.90;;;;;;5015030;28;20184;-55
2023/02/02 09:20:59;;;;;;;1.07;1.07;;;2.40;99.90;;;;;;5014797;28;20184;-58
2023/02/02 09:23:27;;;;;;;1.33;1.23;;;2.40;99.90;;;;;;5014490;28;20165;-59
2023/02/02 09:25:53;;;;;;;1.23;1.13;;;2.40;99.90;;;;;;5030544;28;20212;-53
2023/02/02 09:28:18;;;;;;;1.07;1.00;;;2.40;99.90;;;;;;5021051;28;20184;-55
2023/02/02 09:30:44;;;;;;;1.10;1.10;;;2.50;99.90;;;;;;5018142;28;20541;-51
2023/02/02 09:33:09;;;;;;;1.23;1.23;;;2.50;99.90;;;;;;5034485;28;20182;-51
2023/02/02 09:35:35;;;;;;;1.23;1.20;;;2.50;99.90;;;;;;5034449;28;20254;-55
2023/02/02 09:38:00;;;;;;;0.90;0.90;;;2.50;99.90;;;;;;5033031;28;20214;-55
2023/02/02 09:40:29;;;;;;;0.87;0.87;;;2.60;99.90;;;;;;5034521;28;20186;-55
2023/02/02 09:43:29;;;;;;;0.90;0.90;;;2.60;99.90;;;;;;5024094;28;20263;-56
2023/02/02 09:46:07;;;;;;;0.70;0.70;;;2.70;99.90;;;;;;5015677;28;20752;-55
2023/02/02 09:48:59;;;;;;;0.80;0.80;;;2.90;99.90;;;;;;5031385;28;20567;-55
2023/02/02 09:51:31;;;;;;;0.83;0.83;;;3.00;99.90;;;;;;5033957;28;20683;-52
2023/02/02 09:54:12;;;;;;;0.77;0.70;;;3.10;99.90;;;;;;5033232;28;20183;-56
2023/02/02 09:56:42;;;;;;;0.90;0.90;;;3.10;99.90;;;;;;5032903;28;20208;-56
2023/02/02 09:59:18;;;;;;;0.80;0.80;;;3.10;99.90;;;;;;5033221;28;20592;-58
2023/02/02 10:01:45;;;;;;;0.87;0.87;;;3.30;99.90;;;;;;5033497;28;20176;-56
2023/02/02 10:04:30;;;;;;;1.00;1.00;;;3.40;99.90;;;;;;5030078;28;20266;-51
2023/02/02 10:06:59;;;;;;;1.57;1.03;;;3.50;99.90;;;;;;5020906;28;20250;-53
2023/02/02 10:09:34;;;;;;;0.87;0.87;;;3.40;99.90;;;;;;5030374;28;20211;-54
2023/02/02 10:12:22;;;;;;;0.80;0.80;;;3.30;99.90;;;;;;5031982;28;20276;-57
2023/02/02 10:14:56;;;;;;;1.00;1.00;;;3.30;99.90;;;;;;5029960;28;20226;-53
2023/02/02 10:17:41;;;;;;;1.00;1.00;;;3.20;99.90;;;;;;5031939;28;20171;-57
2023/02/02 10:20:32;;;;;;;0.80;0.80;;;3.10;99.90;;;;;;5024441;28;20263;-54
2023/02/02 10:23:22;;;;;;;0.80;0.80;;;3.10;99.90;;;;;;5025533;28;20185;-55
2023/02/02 10:26:01;;;;;;;0.80;0.80;;;3.00;99.90;;;;;;5032782;28;20207;-58
2023/02/02 10:28:43;;;;;;;0.67;0.67;;;2.90;99.90;;;;;;5026659;28;20176;-58
2023/02/02 10:31:31;;;;;;;0.70;0.70;;;2.70;99.90;;;;;;5033457;28;20172;-54
2023/02/02 10:34:32;;;;;;;0.80;0.80;;;2.70;99.90;;;;;;5024629;28;20191;-57
2023/02/02 10:37:27;;;;;;;0.53;0.53;;;2.90;99.90;;;;;;5014999;28;20572;-57
2023/02/02 10:40:03;;;;;;;0.80;0.80;;;3.10;99.90;;;;;;5019943;28;20755;-54
2023/02/02 10:42:32;;;;;;;2.50;2.23;;;3.20;99.90;;;;;;5033141;28;20175;-51
2023/02/02 10:45:18;;;;;;;0.97;0.97;;;3.20;99.90;;;;;;5013253;28;20246;-55
2023/02/02 10:47:44;;;;;;;0.70;0.70;;;3.20;99.90;;;;;;5029004;28;20184;-53
2023/02/02 10:50:13;;;;;;;0.70;0.70;;;3.30;99.90;;;;;;5031051;28;20176;-53
2023/02/02 10:52:54;;;;;;;0.70;0.70;;;3.40;99.90;;;;;;5022428;28;20245;-51
2023/02/02 10:55:56;;;;;;;0.80;0.80;;;3.30;99.90;;;;;;5031056;28;20258;-53
2023/02/02 10:58:34;;;;;;;0.80;0.80;;;3.30;99.90;;;;;;5025589;28;20266;-51
2023/02/02 11:01:02;;;;;;;0.90;0.90;;;3.20;99.90;;;;;;5024233;28;20736;-53
2023/02/02 11:03:32;;;;;;;1.10;1.07;;;3.20;99.90;;;;;;5031891;28;20172;-53
2023/02/02 11:08:47;;;;;;;0.90;0.90;;;3.30;99.90;;;;;;5013724;28;20187;-51
2023/02/02 11:11:37;;;;;;;0.93;0.93;;;3.50;99.90;;;;;;5030761;28;20181;-50
2023/02/02 11:14:08;;;;;;;1.00;1.00;;;3.50;99.90;;;;;;5023603;28;20183;-48
2023/02/02 11:16:39;;;;;;;1.07;1.07;;;3.40;99.90;;;;;;5025156;28;20249;-55
2023/02/02 11:19:18;;;;;;;0.90;0.90;;;3.40;99.90;;;;;;5026443;28;20603;-53
2023/02/02 11:21:55;;;;;;;0.90;0.90;;;3.50;99.90;;;;;;5032354;28;20690;-50
2023/02/02 11:24:43;;;;;;;1.03;1.03;;;3.50;99.90;;;;;;5012065;28;20200;-54
2023/02/02 11:27:17;;;;;;;1.00;1.00;;;3.70;99.90;;;;;;5022943;28;20279;-53
2023/02/02 11:29:46;;;;;;;1.10;1.10;;;3.80;99.90;;;;;;5027001;28;20554;-52
2023/02/02 11:32:31;;;;;;;0.80;0.80;;;3.70;99.90;;;;;;5027227;28;20167;-52
2023/02/02 11:35:03;;;;;;;1.10;1.10;;;3.80;99.90;;;;;;5031816;28;20200;-51
2023/02/02 11:37:36;;;;;;;0.90;0.90;;;3.90;99.90;;;;;;5031107;28;20174;-56
2023/02/02 11:40:35;;;;;;;1.00;1.00;;;3.90;99.90;;;;;;5032154;28;20595;-56
2023/02/02 11:43:05;;;;;;;0.97;0.97;;;3.70;99.90;;;;;;4986584;28;20665;-51
2023/02/02 11:45:40;;;;;;;1.03;1.00;;;3.60;99.90;;;;;;5027500;28;20669;-53
2023/02/02 11:48:18;;;;;;;0.80;0.80;;;3.60;99.90;;;;;;5028469;28;20185;-50
2023/02/02 11:50:52;;;;;;;1.10;1.10;;;3.60;99.90;;;;;;5028951;28;20185;-50
2023/02/02 11:53:22;;;;;;;0.90;0.90;;;3.50;99.90;;;;;;5012377;28;20258;-51
2023/02/02 11:55:48;;;;;;;1.60;1.50;;;3.60;99.90;;;;;;5016705;28;20605;-52
2023/02/02 11:58:26;;;;;;;1.20;1.10;;;3.70;99.90;;;;;;5027635;28;20184;-52
2023/02/02 12:00:53;;;;;;;0.90;0.90;;;3.70;99.90;;;;;;5017038;28;20179;-48
2023/02/02 12:03:36;;;;;;;1.00;1.00;;;3.80;99.90;;;;;;5019899;28;20177;-56
2023/02/02 12:06:23;;;;;;;1.13;1.00;;;3.80;99.90;;;;;;5024000;28;20283;-52
2023/02/02 12:08:51;;;;;;;1.40;1.30;;;3.70;99.90;;;;;;5014608;28;20544;-52
2023/02/02 12:11:26;;;;;;;1.50;1.40;;;3.70;99.90;;;;;;5031548;28;20537;-55
2023/02/02 12:14:10;;;;;;;2.00;1.80;;;3.70;99.90;;;;;;5030573;28;20660;-53
2023/02/02 12:16:52;;;;;;;2.43;1.50;;;3.60;99.90;;;;;;5027340;28;20226;-55
2023/02/02 12:19:43;;;;;;;1.13;1.13;;;3.60;99.90;;;;;;5019482;28;20720;-53
2023/02/02 12:22:40;;;;;;;1.53;1.40;;;3.50;99.90;;;;;;5022075;28;20578;-51
2023/02/02 12:25:27;;;;;;;1.20;1.20;;;3.50;99.90;;;;;;5020314;28;20215;-53
2023/02/02 12:28:14;;;;;;;1.57;1.47;;;3.50;99.90;;;;;;5028102;28;20172;-56
2023/02/02 12:30:57;;;;;;;2.30;2.10;;;3.60;99.90;;;;;;5026219;28;20208;-53
2023/02/02 12:33:52;;;;;;;1.50;1.40;;;3.50;99.90;;;;;;5022110;28;20274;-51
2023/02/02 12:36:23;;;;;;;1.20;1.20;;;3.50;99.90;;;;;;5026117;28;20200;-53
2023/02/02 12:39:11;;;;;;;1.40;1.30;;;3.40;99.90;;;;;;5026968;28;20180;-55
2023/02/02 12:41:36;;;;;;;1.53;1.43;;;3.50;99.90;;;;;;5029942;28;20172;-56
2023/02/02 12:44:24;;;;;;;1.13;1.13;;;3.50;99.90;;;;;;5030498;28;20582;-55
2023/02/02 12:47:07;;;;;;;1.20;1.20;;;3.60;99.90;;;;;;5030134;28;20706;-54
2023/02/02 12:49:57;;;;;;;1.37;1.30;;;3.50;99.90;;;;;;5024078;28;20168;-52
2023/02/02 12:52:55;;;;;;;1.43;1.40;;;3.40;99.90;;;;;;5030882;28;20195;-51
2023/02/02 12:55:39;;;;;;;1.40;1.30;;;3.40;99.90;;;;;;5013237;28;20220;-56
2023/02/02 12:58:29;;;;;;;1.50;1.50;;;3.40;99.90;;;;;;5012875;28;20168;-51
2023/02/02 13:01:16;;;;;;;1.00;1.00;;;3.30;99.90;;;;;;5024021;28;20176;-52
2023/02/02 13:03:41;;;;;;;1.30;1.30;;;2.90;99.90;;;;;;5030881;28;20526;-50
2023/02/02 13:06:48;;;;;;;1.40;1.30;;;3.40;99.90;;;;;;5030671;28;20256;-53
2023/02/02 13:09:33;;;;;;;1.20;1.20;;;3.50;99.90;;;;;;5013613;28;20250;-54
2023/02/02 13:12:07;;;;;;;1.30;1.30;;;3.50;99.90;;;;;;5025824;28;20190;-52
2023/02/02 13:14:50;;;;;;;1.37;1.37;;;3.50;99.90;;;;;;5025780;28;20207;-51
2023/02/02 13:17:27;;;;;;;1.33;1.27;;;3.50;99.90;;;;;;5030170;28;20187;-52
2023/02/02 13:19:59;;;;;;;1.10;1.10;;;3.50;99.90;;;;;;5029521;28;20172;-52
2023/02/02 13:22:30;;;;;;;1.30;1.30;;;3.40;99.90;;;;;;5023251;28;20249;-51
2023/02/02 13:24:59;;;;;;;1.50;1.40;;;3.40;99.90;;;;;;5029982;28;20172;-56
2023/02/02 13:27:27;;;;;;;1.60;1.50;;;3.30;99.90;;;;;;5030744;28;20226;-51
2023/02/02 13:30:25;;;;;;;2.10;1.60;;;4.60;99.90;;;;;;5030804;28;20175;-56
2023/02/02 13:32:53;;;;;;;1.70;1.60;;;3.20;99.90;;;;;;5021981;28;20191;-53